Terminal Aerodrome Forecast
Issued by NWS Cleveland, OH

Home | Current Version | Previous Version | Text Only | Print | Product List | Glossary On
Versions: 1 2 3 4 5 6 7 8 9 10 11 12 13 14 15 16 17
079
FTUS41 KCLE 272337
TAFCAK
TAF
KCAK 272337Z 2800/2824 18005KT P6SM SCT250
      TEMPO 2809/2811 5SM BR
     FM281700 20010KT P6SM BKN050 BKN150=

USA.gov is the U.S. government's official web portal to all federal, state and local government web resources and services.